CheckWX is a tool to help pilots better visualize weather data.  It is not intended as a substitute for an official pre-flight weather briefing.

15:11:21 UTC

CYQR TAF
Regina International Airport
Regina, Canada
TAF CYQR 131138Z 1312/1412 34012KT P6SM -SN SCT015 OVC030 TEMPO 1312/1316 5SM -SN OVC015 FM131600 35012KT P6SM BKN030 BKN050 TEMPO 1316/1320 6SM -SN BKN020 BKN050 FM132000 36010KT P6SM SCT040 FM140300 VRB03KT P6SM SCT020 RMK NXT FCST BY 131800Z

Dec-13@
12:00 UTC

Dec-13 @ 12:00 UTC

Dec-13@
16:00 UTC

Dec-13 @ 16:00 UTC

TAF CYQR 131138Z 1312/1412 34012KT P6SM -SN SCT015 OVC030
Wind
  • 340° at 12 KTS
Conditions
Light Snow
Cloud Levels
  • Scattered at 1,500' AGL
  • Overcast at 3,000' AGL

Dec-13@
12:00 UTC

Dec-13 @ 12:00 UTC

Dec-13@
16:00 UTC

Dec-13 @ 16:00 UTC

TEMPO 1312/1316 5SM -SN OVC015

Temporary

Temporary Changes expected for less than half the time period

Conditions
Light Snow
Cloud Levels
  • Overcast at 1,500' AGL

Dec-13@
16:00 UTC

Dec-13 @ 16:00 UTC

Dec-13@
20:00 UTC

Dec-13 @ 20:00 UTC

FM131600 35012KT P6SM BKN030 BKN050

From

From Standard forecast or significant change

Wind
  • 350° at 12 KTS
Cloud Levels
  • Broken at 3,000' AGL
  • Broken at 5,000' AGL

Dec-13@
16:00 UTC

Dec-13 @ 16:00 UTC

Dec-13@
20:00 UTC

Dec-13 @ 20:00 UTC

TEMPO 1316/1320 6SM -SN BKN020 BKN050

Temporary

Temporary Changes expected for less than half the time period

Conditions
Light Snow
Cloud Levels
  • Broken at 2,000' AGL
  • Broken at 5,000' AGL

Dec-13@
20:00 UTC

Dec-13 @ 20:00 UTC

Dec-14@
03:00 UTC

Dec-14 @ 03:00 UTC

FM132000 36010KT P6SM SCT040

From

From Standard forecast or significant change

Wind
  • 360° at 10 KTS
Cloud Levels
  • Scattered at 4,000' AGL

Dec-14@
03:00 UTC

Dec-14 @ 03:00 UTC

Dec-14@
12:00 UTC

Dec-14 @ 12:00 UTC

FM140300 VRB03KT P6SM SCT020 RMK NXT FCST BY 131800Z

From

From Standard forecast or significant change

Wind
  • Variable at 3 KTS
Cloud Levels
  • Scattered at 2,000' AGL